sensor_id;sensor_type;location;lat;lon;timestamp;pressure;altitude;pressure_sealevel;temperature;humidity
76998;BME280;65930;48.874;10.734;2023-04-03T00:01:17;96697.75;;;2.61;70.19
76998;BME280;65930;48.874;10.734;2023-04-03T00:03:45;96697.63;;;2.79;70.07
76998;BME280;65930;48.874;10.734;2023-04-03T00:06:14;96697.63;;;2.79;69.96
76998;BME280;65930;48.874;10.734;2023-04-03T00:08:42;96701.47;;;2.78;69.60
76998;BME280;65930;48.874;10.734;2023-04-03T00:11:10;96698.00;;;2.89;69.57
76998;BME280;65930;48.874;10.734;2023-04-03T00:13:38;96692.19;;;2.91;69.53
76998;BME280;65930;48.874;10.734;2023-04-03T00:16:09;96700.41;;;2.91;69.09
76998;BME280;65930;48.874;10.734;2023-04-03T00:18:39;96694.16;;;2.70;69.11
76998;BME280;65930;48.874;10.734;2023-04-03T00:21:08;96695.09;;;2.74;69.67
76998;BME280;65930;48.874;10.734;2023-04-03T00:23:37;96706.03;;;2.74;69.77
76998;BME280;65930;48.874;10.734;2023-04-03T00:26:06;96694.88;;;2.79;68.65
76998;BME280;65930;48.874;10.734;2023-04-03T00:28:34;96697.28;;;2.80;69.34
76998;BME280;65930;48.874;10.734;2023-04-03T00:31:02;96702.16;;;2.75;68.56
76998;BME280;65930;48.874;10.734;2023-04-03T00:33:31;96698.16;;;2.72;67.97
76998;BME280;65930;48.874;10.734;2023-04-03T00:35:59;96702.81;;;2.72;68.97
76998;BME280;65930;48.874;10.734;2023-04-03T00:38:27;96697.63;;;2.79;68.71
76998;BME280;65930;48.874;10.734;2023-04-03T00:40:55;96695.34;;;2.81;69.29
76998;BME280;65930;48.874;10.734;2023-04-03T00:43:26;96692.81;;;2.76;69.26
76998;BME280;65930;48.874;10.734;2023-04-03T00:45:57;96699.88;;;2.77;68.94
76998;BME280;65930;48.874;10.734;2023-04-03T00:48:29;96695.28;;;2.69;69.77
76998;BME280;65930;48.874;10.734;2023-04-03T00:51:01;96702.16;;;2.75;68.96
76998;BME280;65930;48.874;10.734;2023-04-03T00:53:34;96696.91;;;2.70;69.76
76998;BME280;65930;48.874;10.734;2023-04-03T00:56:06;96695.53;;;2.76;69.85
76998;BME280;65930;48.874;10.734;2023-04-03T00:58:41;96690.00;;;2.84;70.34
76998;BME280;65930;48.874;10.734;2023-04-03T01:01:16;96694.28;;;2.73;70.52
76998;BME280;65930;48.874;10.734;2023-04-03T01:03:46;96690.28;;;2.71;69.75
76998;BME280;65930;48.874;10.734;2023-04-03T01:06:17;96690.75;;;2.73;70.16
76998;BME280;65930;48.874;10.734;2023-04-03T01:08:49;96688.69;;;2.70;69.84
76998;BME280;65930;48.874;10.734;2023-04-03T01:11:18;96692.44;;;2.65;69.06
76998;BME280;65930;48.874;10.734;2023-04-03T01:13:47;96688.81;;;2.52;68.71
76998;BME280;65930;48.874;10.734;2023-04-03T01:16:15;96689.59;;;2.53;69.03
76998;BME280;65930;48.874;10.734;2023-04-03T01:18:45;96686.53;;;2.54;68.66
76998;BME280;65930;48.874;10.734;2023-04-03T01:21:52;96690.53;;;2.57;68.55
76998;BME280;65930;48.874;10.734;2023-04-03T01:24:35;96691.16;;;2.62;67.95
76998;BME280;65930;48.874;10.734;2023-04-03T01:27:08;96684.28;;;2.56;67.60
76998;BME280;65930;48.874;10.734;2023-04-03T01:29:37;96680.41;;;2.57;67.62
76998;BME280;65930;48.874;10.734;2023-04-03T01:32:07;96696.41;;;2.67;67.88
76998;BME280;65930;48.874;10.734;2023-04-03T01:34:35;96690.22;;;2.58;66.78
76998;BME280;65930;48.874;10.734;2023-04-03T01:37:03;96696.47;;;2.59;67.78
76998;BME280;65930;48.874;10.734;2023-04-03T01:39:31;96697.00;;;2.32;67.86
76998;BME280;65930;48.874;10.734;2023-04-03T01:41:59;96694.41;;;2.35;68.29
76998;BME280;65930;48.874;10.734;2023-04-03T01:44:27;96689.47;;;2.49;68.33
76998;BME280;65930;48.874;10.734;2023-04-03T01:46:55;96702.09;;;2.62;68.76
76998;BME280;65930;48.874;10.734;2023-04-03T01:49:24;96697.53;;;2.66;66.97
76998;BME280;65930;48.874;10.734;2023-04-03T01:51:52;96705.75;;;2.66;67.56
76998;BME280;65930;48.874;10.734;2023-04-03T01:54:21;96699.53;;;2.57;66.21
76998;BME280;65930;48.874;10.734;2023-04-03T01:56:49;96697.16;;;2.56;67.19
76998;BME280;65930;48.874;10.734;2023-04-03T01:59:17;96700.22;;;2.54;67.00
76998;BME280;65930;48.874;10.734;2023-04-03T02:01:45;96691.34;;;2.57;67.06
76998;BME280;65930;48.874;10.734;2023-04-03T02:04:13;96700.69;;;2.56;67.45
76998;BME280;65930;48.874;10.734;2023-04-03T02:06:43;96693.22;;;2.65;68.67
76998;BME280;65930;48.874;10.734;2023-04-03T02:09:10;96692.50;;;2.56;66.28
76998;BME280;65930;48.874;10.734;2023-04-03T02:11:38;96701.63;;;2.60;66.69
76998;BME280;65930;48.874;10.734;2023-04-03T02:14:06;96689.34;;;2.46;66.89
76998;BME280;65930;48.874;10.734;2023-04-03T02:16:34;96687.66;;;2.53;67.46
76998;BME280;65930;48.874;10.734;2023-04-03T02:19:02;96693.94;;;2.33;66.56
76998;BME280;65930;48.874;10.734;2023-04-03T02:21:30;96701.00;;;2.34;67.39
76998;BME280;65930;48.874;10.734;2023-04-03T02:23:59;96685.59;;;2.30;66.54
76998;BME280;65930;48.874;10.734;2023-04-03T02:26:27;96692.25;;;2.20;67.02
76998;BME280;65930;48.874;10.734;2023-04-03T02:28:55;96690.13;;;2.26;67.02
76998;BME280;65930;48.874;10.734;2023-04-03T02:31:23;96694.78;;;2.25;67.47
76998;BME280;65930;48.874;10.734;2023-04-03T02:33:51;96696.81;;;2.37;66.97
76998;BME280;65930;48.874;10.734;2023-04-03T02:36:19;96698.00;;;2.48;66.54
76998;BME280;65930;48.874;10.734;2023-04-03T02:38:47;96701.53;;;2.48;66.92
76998;BME280;65930;48.874;10.734;2023-04-03T02:41:17;96697.63;;;2.37;66.75
76998;BME280;65930;48.874;10.734;2023-04-03T02:43:45;96710.13;;;2.38;67.06
76998;BME280;65930;48.874;10.734;2023-04-03T02:46:12;96707.38;;;2.17;66.76
76998;BME280;65930;48.874;10.734;2023-04-03T02:48:41;96708.50;;;2.16;67.16
76998;BME280;65930;48.874;10.734;2023-04-03T02:51:09;96708.69;;;2.11;67.04
76998;BME280;65930;48.874;10.734;2023-04-03T02:53:37;96720.50;;;2.24;68.27
76998;BME280;65930;48.874;10.734;2023-04-03T02:56:05;96712.97;;;2.21;66.52
76998;BME280;65930;48.874;10.734;2023-04-03T02:58:34;96712.97;;;2.21;67.20
76998;BME280;65930;48.874;10.734;2023-04-03T03:01:03;96711.56;;;2.15;67.48
76998;BME280;65930;48.874;10.734;2023-04-03T03:03:30;96702.25;;;2.16;68.23
76998;BME280;65930;48.874;10.734;2023-04-03T03:06:03;96701.16;;;2.08;68.41
76998;BME280;65930;48.874;10.734;2023-04-03T03:08:31;96705.47;;;2.18;67.73
76998;BME280;65930;48.874;10.734;2023-04-03T03:10:59;96703.91;;;2.08;67.76
76998;BME280;65930;48.874;10.734;2023-04-03T03:13:27;96702.44;;;2.11;68.27
76998;BME280;65930;48.874;10.734;2023-04-03T03:15:57;96703.59;;;2.10;67.61
76998;BME280;65930;48.874;10.734;2023-04-03T03:18:25;96692.09;;;1.96;68.55
76998;BME280;65930;48.874;10.734;2023-04-03T03:20:53;96692.44;;;1.86;68.27
76998;BME280;65930;48.874;10.734;2023-04-03T03:23:23;96691.50;;;1.82;68.88
76998;BME280;65930;48.874;10.734;2023-04-03T03:25:55;96705.63;;;1.84;68.89
76998;BME280;65930;48.874;10.734;2023-04-03T03:28:23;96702.50;;;1.64;68.70
76998;BME280;65930;48.874;10.734;2023-04-03T03:30:51;96702.50;;;1.64;68.99
76998;BME280;65930;48.874;10.734;2023-04-03T03:33:21;96700.69;;;1.68;69.05
76998;BME280;65930;48.874;10.734;2023-04-03T03:35:49;96702.16;;;1.66;69.11
76998;BME280;65930;48.874;10.734;2023-04-03T03:38:17;96698.81;;;1.60;69.36
76998;BME280;65930;48.874;10.734;2023-04-03T03:40:46;96707.66;;;1.57;69.48
76998;BME280;65930;48.874;10.734;2023-04-03T03:43:15;96696.09;;;1.60;68.80
76998;BME280;65930;48.874;10.734;2023-04-03T03:45:43;96696.25;;;1.55;69.34
76998;BME280;65930;48.874;10.734;2023-04-03T03:48:12;96694.19;;;1.52;69.95
76998;BME280;65930;48.874;10.734;2023-04-03T03:50:41;96697.41;;;1.46;69.73
76998;BME280;65930;48.874;10.734;2023-04-03T03:53:09;96698.03;;;1.51;70.27
76998;BME280;65930;48.874;10.734;2023-04-03T03:55:37;96701.25;;;1.53;70.13
76998;BME280;65930;48.874;10.734;2023-04-03T03:58:05;96705.56;;;1.63;70.32
76998;BME280;65930;48.874;10.734;2023-04-03T04:00:33;96701.09;;;1.58;68.87
76998;BME280;65930;48.874;10.734;2023-04-03T04:03:01;96697.03;;;1.64;69.34
76998;BME280;65930;48.874;10.734;2023-04-03T04:05:29;96703.44;;;1.68;70.12
76998;BME280;65930;48.874;10.734;2023-04-03T04:07:58;96705.53;;;1.71;69.93
76998;BME280;65930;48.874;10.734;2023-04-03T04:10:26;96693.00;;;1.70;70.40
76998;BME280;65930;48.874;10.734;2023-04-03T04:12:54;96702.34;;;1.61;70.05
76998;BME280;65930;48.874;10.734;2023-04-03T04:15:24;96697.69;;;1.61;70.16
76998;BME280;65930;48.874;10.734;2023-04-03T04:17:52;96698.63;;;1.65;69.81
76998;BME280;65930;48.874;10.734;2023-04-03T04:20:20;96709.28;;;1.58;69.77
76998;BME280;65930;48.874;10.734;2023-04-03T04:22:48;96717.16;;;1.51;70.48
76998;BME280;65930;48.874;10.734;2023-04-03T04:25:18;96705.44;;;1.51;70.33
76998;BME280;65930;48.874;10.734;2023-04-03T04:27:46;96699.31;;;1.62;70.00
76998;BME280;65930;48.874;10.734;2023-04-03T04:30:14;96700.44;;;1.61;70.19
76998;BME280;65930;48.874;10.734;2023-04-03T04:32:42;96706.38;;;1.55;70.44
76998;BME280;65930;48.874;10.734;2023-04-03T04:35:09;96707.50;;;1.62;70.21
76998;BME280;65930;48.874;10.734;2023-04-03T04:37:40;96705.78;;;1.49;70.27
76998;BME280;65930;48.874;10.734;2023-04-03T04:40:09;96713.47;;;1.47;70.96
76998;BME280;65930;48.874;10.734;2023-04-03T04:42:38;96713.97;;;1.49;70.44
76998;BME280;65930;48.874;10.734;2023-04-03T04:45:07;96706.88;;;1.57;70.68
76998;BME280;65930;48.874;10.734;2023-04-03T04:47:35;96707.94;;;1.64;70.16
76998;BME280;65930;48.874;10.734;2023-04-03T04:50:03;96714.34;;;1.68;69.98
76998;BME280;65930;48.874;10.734;2023-04-03T04:52:32;96711.03;;;1.54;70.40
76998;BME280;65930;48.874;10.734;2023-04-03T04:55:00;96722.44;;;1.56;70.34
76998;BME280;65930;48.874;10.734;2023-04-03T04:57:27;96712.66;;;1.55;70.49
76998;BME280;65930;48.874;10.734;2023-04-03T04:59:57;96710.59;;;1.44;70.67
76998;BME280;65930;48.874;10.734;2023-04-03T05:02:25;96718.94;;;1.47;70.98
76998;BME280;65930;48.874;10.734;2023-04-03T05:04:53;96722.16;;;1.49;71.03
76998;BME280;65930;48.874;10.734;2023-04-03T05:07:21;96715.25;;;1.43;70.85
76998;BME280;65930;48.874;10.734;2023-04-03T05:09:48;96719.25;;;1.46;71.12
76998;BME280;65930;48.874;10.734;2023-04-03T05:12:19;96714.94;;;1.36;71.03
76998;BME280;65930;48.874;10.734;2023-04-03T05:14:47;96718.81;;;1.35;71.23
76998;BME280;65930;48.874;10.734;2023-04-03T05:17:16;96719.59;;;1.44;70.56
76998;BME280;65930;48.874;10.734;2023-04-03T05:19:44;96716.69;;;1.41;71.29
76998;BME280;65930;48.874;10.734;2023-04-03T05:22:12;96724.09;;;1.40;71.60
76998;BME280;65930;48.874;10.734;2023-04-03T05:24:40;96720.22;;;1.41;71.05
76998;BME280;65930;48.874;10.734;2023-04-03T05:27:08;96720.84;;;1.55;70.94
76998;BME280;65930;48.874;10.734;2023-04-03T05:29:35;96723.75;;;1.50;71.04
76998;BME280;65930;48.874;10.734;2023-04-03T05:32:04;96729.53;;;1.40;71.59
76998;BME280;65930;48.874;10.734;2023-04-03T05:34:33;96735.00;;;1.49;72.04
76998;BME280;65930;48.874;10.734;2023-04-03T05:37:01;96733.09;;;1.49;71.81
76998;BME280;65930;48.874;10.734;2023-04-03T05:39:31;96733.53;;;1.51;70.60
76998;BME280;65930;48.874;10.734;2023-04-03T05:41:59;96732.91;;;1.46;71.05
76998;BME280;65930;48.874;10.734;2023-04-03T05:44:27;96727.63;;;1.49;72.27
76998;BME280;65930;48.874;10.734;2023-04-03T05:46:55;96736.09;;;1.56;71.51
76998;BME280;65930;48.874;10.734;2023-04-03T05:49:23;96730.81;;;1.51;71.22
76998;BME280;65930;48.874;10.734;2023-04-03T05:51:52;96732.28;;;1.49;71.63
76998;BME280;65930;48.874;10.734;2023-04-03T05:54:23;96732.88;;;1.63;71.90
76998;BME280;65930;48.874;10.734;2023-04-03T05:56:52;96735.91;;;1.61;70.56
76998;BME280;65930;48.874;10.734;2023-04-03T05:59:20;96735.91;;;1.61;70.80
76998;BME280;65930;48.874;10.734;2023-04-03T06:01:48;96740.72;;;1.64;71.01
76998;BME280;65930;48.874;10.734;2023-04-03T06:04:16;96737.53;;;1.62;71.44
76998;BME280;65930;48.874;10.734;2023-04-03T06:06:48;96736.09;;;1.56;71.26
76998;BME280;65930;48.874;10.734;2023-04-03T06:09:20;96739.69;;;1.77;71.80
76998;BME280;65930;48.874;10.734;2023-04-03T06:11:49;96742.13;;;1.79;71.33
76998;BME280;65930;48.874;10.734;2023-04-03T06:14:17;96749.84;;;1.77;71.43
76998;BME280;65930;48.874;10.734;2023-04-03T06:16:45;96748.38;;;1.80;70.74
76998;BME280;65930;48.874;10.734;2023-04-03T06:19:13;96747.78;;;1.65;70.89
76998;BME280;65930;48.874;10.734;2023-04-03T06:21:41;96752.78;;;1.55;71.46
76998;BME280;65930;48.874;10.734;2023-04-03T06:24:11;96751.81;;;1.59;72.18
76998;BME280;65930;48.874;10.734;2023-04-03T06:26:41;96752.88;;;1.84;71.83
76998;BME280;65930;48.874;10.734;2023-04-03T06:29:09;96760.78;;;1.77;71.76
76998;BME280;65930;48.874;10.734;2023-04-03T06:31:37;96748.09;;;1.72;72.15
76998;BME280;65930;48.874;10.734;2023-04-03T06:34:06;96755.78;;;1.79;72.06
76998;BME280;65930;48.874;10.734;2023-04-03T06:36:35;96752.19;;;1.96;72.34
76998;BME280;65930;48.874;10.734;2023-04-03T06:39:03;96752.78;;;2.10;71.18
76998;BME280;65930;48.874;10.734;2023-04-03T06:41:31;96757.72;;;2.16;70.21
76998;BME280;65930;48.874;10.734;2023-04-03T06:44:03;96759.19;;;2.05;70.33
76998;BME280;65930;48.874;10.734;2023-04-03T06:46:30;96756.59;;;1.80;71.71
76998;BME280;65930;48.874;10.734;2023-04-03T06:48:58;96758.97;;;1.90;71.75
76998;BME280;65930;48.874;10.734;2023-04-03T06:51:28;96758.44;;;1.96;71.17
76998;BME280;65930;48.874;10.734;2023-04-03T06:53:58;96755.09;;;1.91;71.77
76998;BME280;65930;48.874;10.734;2023-04-03T06:56:29;96769.88;;;1.90;71.22
76998;BME280;65930;48.874;10.734;2023-04-03T06:58:57;96760.56;;;1.82;73.11
76998;BME280;65930;48.874;10.734;2023-04-03T07:01:30;96765.50;;;1.97;72.16
76998;BME280;65930;48.874;10.734;2023-04-03T07:03:58;96773.59;;;2.23;71.54
76998;BME280;65930;48.874;10.734;2023-04-03T07:06:26;96781.03;;;2.14;71.08
76998;BME280;65930;48.874;10.734;2023-04-03T07:08:55;96773.59;;;2.23;72.12
76998;BME280;65930;48.874;10.734;2023-04-03T07:11:23;96775.19;;;2.24;71.29
76998;BME280;65930;48.874;10.734;2023-04-03T07:13:52;96784.91;;;2.13;70.87
76998;BME280;65930;48.874;10.734;2023-04-03T07:16:20;96778.97;;;2.40;71.29
76998;BME280;65930;48.874;10.734;2023-04-03T07:18:49;96779.97;;;2.36;71.28
76998;BME280;65930;48.874;10.734;2023-04-03T07:21:17;96796.69;;;2.34;71.46
76998;BME280;65930;48.874;10.734;2023-04-03T07:23:45;96785.09;;;2.37;71.36
76998;BME280;65930;48.874;10.734;2023-04-03T07:26:18;96792.97;;;2.39;70.80
76998;BME280;65930;48.874;10.734;2023-04-03T07:28:47;96788.34;;;2.60;71.42
76998;BME280;65930;48.874;10.734;2023-04-03T07:31:17;96796.75;;;2.76;71.41
76998;BME280;65930;48.874;10.734;2023-04-03T07:33:45;96792.91;;;2.77;71.02
76998;BME280;65930;48.874;10.734;2023-04-03T07:36:18;96790.78;;;2.82;70.14
76998;BME280;65930;48.874;10.734;2023-04-03T07:38:46;96795.44;;;2.61;69.98
76998;BME280;65930;48.874;10.734;2023-04-03T07:41:16;96797.72;;;2.80;70.33
76998;BME280;65930;48.874;10.734;2023-04-03T07:43:46;96795.59;;;3.06;69.85
76998;BME280;65930;48.874;10.734;2023-04-03T07:46:17;96795.03;;;3.33;69.85
76998;BME280;65930;48.874;10.734;2023-04-03T07:48:45;96806.78;;;3.13;69.14
76998;BME280;65930;48.874;10.734;2023-04-03T07:51:14;96807.34;;;3.06;68.52
76998;BME280;65930;48.874;10.734;2023-04-03T07:53:42;96806.13;;;2.75;70.38
76998;BME280;65930;48.874;10.734;2023-04-03T07:56:10;96810.19;;;2.69;72.04
76998;BME280;65930;48.874;10.734;2023-04-03T07:58:38;96801.84;;;2.86;71.19
76998;BME280;65930;48.874;10.734;2023-04-03T08:01:06;96815.91;;;2.76;71.04
76998;BME280;65930;48.874;10.734;2023-04-03T08:03:34;96811.66;;;2.87;69.93
76998;BME280;65930;48.874;10.734;2023-04-03T08:06:05;96813.41;;;2.62;70.87
76998;BME280;65930;48.874;10.734;2023-04-03T08:08:42;96800.47;;;2.80;71.37
76998;BME280;65930;48.874;10.734;2023-04-03T08:11:11;96812.88;;;2.98;71.64
76998;BME280;65930;48.874;10.734;2023-04-03T08:13:39;96816.69;;;3.26;70.73
76998;BME280;65930;48.874;10.734;2023-04-03T08:16:10;96808.69;;;3.21;70.26
76998;BME280;65930;48.874;10.734;2023-04-03T08:18:39;96809.88;;;3.12;69.51
76998;BME280;65930;48.874;10.734;2023-04-03T08:21:07;96817.19;;;2.99;69.74
76998;BME280;65930;48.874;10.734;2023-04-03T08:23:35;96814.81;;;3.18;69.16
76998;BME280;65930;48.874;10.734;2023-04-03T08:26:09;96816.25;;;3.36;69.00
76998;BME280;65930;48.874;10.734;2023-04-03T08:28:38;96812.50;;;3.62;68.32
76998;BME280;65930;48.874;10.734;2023-04-03T08:31:08;96822.22;;;3.38;67.77
76998;BME280;65930;48.874;10.734;2023-04-03T08:33:38;96823.66;;;3.57;67.81
76998;BME280;65930;48.874;10.734;2023-04-03T08:36:17;96817.78;;;3.46;68.43
76998;BME280;65930;48.874;10.734;2023-04-03T08:38:45;96828.38;;;3.35;66.92
76998;BME280;65930;48.874;10.734;2023-04-03T08:41:22;96809.44;;;3.42;67.66
76998;BME280;65930;48.874;10.734;2023-04-03T08:44:10;96808.72;;;3.54;66.27
76998;BME280;65930;48.874;10.734;2023-04-03T08:46:51;96822.78;;;3.65;66.32
76998;BME280;65930;48.874;10.734;2023-04-03T08:49:30;96819.63;;;3.75;65.87
76998;BME280;65930;48.874;10.734;2023-04-03T08:52:02;96812.00;;;3.92;65.80
76998;BME280;65930;48.874;10.734;2023-04-03T08:54:35;96820.81;;;3.98;65.51
76998;BME280;65930;48.874;10.734;2023-04-03T08:57:06;96812.81;;;3.93;63.76
76998;BME280;65930;48.874;10.734;2023-04-03T08:59:36;96822.13;;;3.80;64.87
76998;BME280;65930;48.874;10.734;2023-04-03T09:02:23;96814.03;;;3.83;64.31
76998;BME280;65930;48.874;10.734;2023-04-03T09:04:53;96817.25;;;3.85;63.95
76998;BME280;65930;48.874;10.734;2023-04-03T09:07:31;96824.56;;;3.81;64.12
76998;BME280;65930;48.874;10.734;2023-04-03T09:10:01;96816.56;;;3.88;64.13
76998;BME280;65930;48.874;10.734;2023-04-03T09:12:37;96822.22;;;4.16;64.14
76998;BME280;65930;48.874;10.734;2023-04-03T09:15:16;96823.16;;;4.32;63.87
76998;BME280;65930;48.874;10.734;2023-04-03T09:18:04;96814.50;;;4.42;62.44
76998;BME280;65930;48.874;10.734;2023-04-03T09:20:42;96832.06;;;4.29;61.47
76998;BME280;65930;48.874;10.734;2023-04-03T09:23:22;96824.88;;;4.49;61.06
76998;BME280;65930;48.874;10.734;2023-04-03T09:25:58;96823.59;;;4.22;60.44
76998;BME280;65930;48.874;10.734;2023-04-03T09:28:35;96825.88;;;4.20;62.43
76998;BME280;65930;48.874;10.734;2023-04-03T09:31:22;96823.63;;;4.59;61.08
76998;BME280;65930;48.874;10.734;2023-04-03T09:33:54;96827.66;;;4.61;59.55
76998;BME280;65930;48.874;10.734;2023-04-03T09:36:41;96828.06;;;4.39;58.61
76998;BME280;65930;48.874;10.734;2023-04-03T09:39:13;96822.16;;;4.37;58.38
76998;BME280;65930;48.874;10.734;2023-04-03T09:41:42;96824.53;;;4.87;59.19
76998;BME280;65930;48.874;10.734;2023-04-03T09:44:25;96819.09;;;5.27;57.97
76998;BME280;65930;48.874;10.734;2023-04-03T09:46:53;96822.44;;;5.08;57.23
76998;BME280;65930;48.874;10.734;2023-04-03T09:49:22;96832.78;;;4.75;57.88
76998;BME280;65930;48.874;10.734;2023-04-03T09:51:49;96821.13;;;4.41;58.05
76998;BME280;65930;48.874;10.734;2023-04-03T09:54:33;96821.22;;;4.45;55.02
76998;BME280;65930;48.874;10.734;2023-04-03T09:57:10;96812.53;;;4.55;55.86
76998;BME280;65930;48.874;10.734;2023-04-03T09:59:45;96821.09;;;4.29;53.32
76998;BME280;65930;48.874;10.734;2023-04-03T10:02:35;96824.41;;;4.35;52.06
76998;BME280;65930;48.874;10.734;2023-04-03T10:05:29;96809.69;;;4.39;54.28
76998;BME280;65930;48.874;10.734;2023-04-03T10:08:09;96814.59;;;4.46;53.76
76998;BME280;65930;48.874;10.734;2023-04-03T10:10:38;96817.22;;;4.55;55.21
76998;BME280;65930;48.874;10.734;2023-04-03T10:13:11;96807.63;;;4.73;52.82
76998;BME280;65930;48.874;10.734;2023-04-03T10:15:51;96812.31;;;4.60;51.27
76998;BME280;65930;48.874;10.734;2023-04-03T10:18:32;96811.84;;;4.58;50.19
76998;BME280;65930;48.874;10.734;2023-04-03T10:21:09;96810.94;;;4.42;47.80
76998;BME280;65930;48.874;10.734;2023-04-03T10:24:01;96808.31;;;4.46;47.36
76998;BME280;65930;48.874;10.734;2023-04-03T10:26:39;96815.84;;;4.36;49.30
76998;BME280;65930;48.874;10.734;2023-04-03T10:29:21;96809.34;;;4.53;49.72
76998;BME280;65930;48.874;10.734;2023-04-03T10:32:07;96811.03;;;4.82;51.41
76998;BME280;65930;48.874;10.734;2023-04-03T10:34:42;96816.06;;;4.92;52.72
76998;BME280;65930;48.874;10.734;2023-04-03T10:37:27;96818.09;;;5.07;53.40
76998;BME280;65930;48.874;10.734;2023-04-03T10:40:15;96822.69;;;4.91;54.09
76998;BME280;65930;48.874;10.734;2023-04-03T10:42:53;96811.47;;;4.96;54.57
76998;BME280;65930;48.874;10.734;2023-04-03T10:45:29;96807.97;;;5.36;52.84
76998;BME280;65930;48.874;10.734;2023-04-03T10:48:07;96812.19;;;4.93;52.00
76998;BME280;65930;48.874;10.734;2023-04-03T10:50:44;96814.41;;;5.15;52.59
76998;BME280;65930;48.874;10.734;2023-04-03T10:53:24;96799.13;;;5.02;52.50
76998;BME280;65930;48.874;10.734;2023-04-03T10:56:06;96800.22;;;5.13;50.44
76998;BME280;65930;48.874;10.734;2023-04-03T10:58:43;96810.47;;;5.28;52.95
76998;BME280;65930;48.874;10.734;2023-04-03T11:01:16;96799.72;;;5.36;51.29
76998;BME280;65930;48.874;10.734;2023-04-03T11:03:51;96803.84;;;5.29;51.42
76998;BME280;65930;48.874;10.734;2023-04-03T11:06:24;96799.53;;;5.16;54.89
76998;BME280;65930;48.874;10.734;2023-04-03T11:08:59;96801.94;;;5.18;52.50
76998;BME280;65930;48.874;10.734;2023-04-03T11:11:33;96796.06;;;5.59;53.13
76998;BME280;65930;48.874;10.734;2023-04-03T11:14:05;96782.59;;;5.70;49.32
76998;BME280;65930;48.874;10.734;2023-04-03T11:16:43;96793.16;;;5.68;49.65
76998;BME280;65930;48.874;10.734;2023-04-03T11:19:31;96786.25;;;5.46;45.99
76998;BME280;65930;48.874;10.734;2023-04-03T11:22:08;96789.66;;;5.55;46.24
76998;BME280;65930;48.874;10.734;2023-04-03T11:24:53;96785.78;;;5.56;46.19
76998;BME280;65930;48.874;10.734;2023-04-03T11:27:24;96778.88;;;5.35;44.70
76998;BME280;65930;48.874;10.734;2023-04-03T11:29:55;96784.47;;;5.66;45.48
76998;BME280;65930;48.874;10.734;2023-04-03T11:32:54;96778.16;;;5.50;45.63
76998;BME280;65930;48.874;10.734;2023-04-03T11:35:28;96775.63;;;5.72;48.19
76998;BME280;65930;48.874;10.734;2023-04-03T11:38:00;96771.66;;;5.86;50.64
76998;BME280;65930;48.874;10.734;2023-04-03T11:40:32;96772.06;;;6.00;47.80
76998;BME280;65930;48.874;10.734;2023-04-03T11:43:06;96775.78;;;6.07;47.81
76998;BME280;65930;48.874;10.734;2023-04-03T11:45:37;96784.59;;;6.29;48.16
76998;BME280;65930;48.874;10.734;2023-04-03T11:48:43;96784.41;;;6.37;44.12
76998;BME280;65930;48.874;10.734;2023-04-03T11:54:42;96767.53;;;6.07;47.36
76998;BME280;65930;48.874;10.734;2023-04-03T12:00:49;96771.06;;;5.37;46.97
76998;BME280;65930;48.874;10.734;2023-04-03T12:09:32;96769.91;;;5.50;48.02
76998;BME280;65930;48.874;10.734;2023-04-03T12:12:24;96768.19;;;5.45;47.21
76998;BME280;65930;48.874;10.734;2023-04-03T12:14:54;96764.53;;;5.69;45.25
76998;BME280;65930;48.874;10.734;2023-04-03T12:17:26;96769.00;;;5.46;41.41
76998;BME280;65930;48.874;10.734;2023-04-03T12:19:56;96770.53;;;5.31;44.60
76998;BME280;65930;48.874;10.734;2023-04-03T12:22:23;96767.00;;;5.74;44.13
76998;BME280;65930;48.874;10.734;2023-04-03T12:24:52;96753.22;;;5.86;42.09
76998;BME280;65930;48.874;10.734;2023-04-03T12:27:25;96763.19;;;5.63;42.54
76998;BME280;65930;48.874;10.734;2023-04-03T12:30:12;96755.59;;;5.44;44.23
76998;BME280;65930;48.874;10.734;2023-04-03T12:33:10;96764.91;;;5.40;44.22
76998;BME280;65930;48.874;10.734;2023-04-03T12:35:51;96747.19;;;5.53;44.23
76998;BME280;65930;48.874;10.734;2023-04-03T12:38:44;96755.91;;;5.55;48.05
76998;BME280;65930;48.874;10.734;2023-04-03T12:41:32;96739.31;;;6.26;45.70
76998;BME280;65930;48.874;10.734;2023-04-03T12:44:21;96743.31;;;6.79;44.94
76998;BME280;65930;48.874;10.734;2023-04-03T12:46:53;96743.16;;;6.72;41.31
76998;BME280;65930;48.874;10.734;2023-04-03T12:49:35;96742.06;;;7.12;39.10
76998;BME280;65930;48.874;10.734;2023-04-03T12:52:12;96732.91;;;6.88;41.12
76998;BME280;65930;48.874;10.734;2023-04-03T12:54:45;96740.63;;;6.98;42.61
76998;BME280;65930;48.874;10.734;2023-04-03T12:57:18;96738.69;;;6.83;41.25
76998;BME280;65930;48.874;10.734;2023-04-03T12:59:48;96731.16;;;6.30;40.72
76998;BME280;65930;48.874;10.734;2023-04-03T13:02:24;96742.88;;;5.95;44.36
76998;BME280;65930;48.874;10.734;2023-04-03T13:04:54;96741.94;;;5.75;46.85
76998;BME280;65930;48.874;10.734;2023-04-03T13:07:28;96746.56;;;5.44;47.13
76998;BME280;65930;48.874;10.734;2023-04-03T13:10:03;96745.56;;;5.36;46.77
76998;BME280;65930;48.874;10.734;2023-04-03T13:12:46;96753.59;;;5.57;48.07
76998;BME280;65930;48.874;10.734;2023-04-03T13:15:18;96748.06;;;5.85;45.53
76998;BME280;65930;48.874;10.734;2023-04-03T13:17:47;96746.59;;;5.87;44.48
76998;BME280;65930;48.874;10.734;2023-04-03T13:20:21;96740.78;;;5.76;44.53
76998;BME280;65930;48.874;10.734;2023-04-03T13:22:55;96747.56;;;6.42;42.63
76998;BME280;65930;48.874;10.734;2023-04-03T13:25:28;96727.75;;;6.52;39.48
76998;BME280;65930;48.874;10.734;2023-04-03T13:27:59;96728.41;;;6.80;39.73
76998;BME280;65930;48.874;10.734;2023-04-03T13:30:55;96729.97;;;6.81;43.54
76998;BME280;65930;48.874;10.734;2023-04-03T13:33:26;96722.91;;;6.80;41.32
76998;BME280;65930;48.874;10.734;2023-04-03T13:35:57;96737.56;;;6.34;42.06
76998;BME280;65930;48.874;10.734;2023-04-03T13:38:29;96740.22;;;6.14;44.18